createdAt,value
2023-04-19T00:03:59.651Z,66.84
2023-04-19T00:14:25.684Z,67.09
2023-04-19T00:24:51.025Z,67.08
2023-04-19T00:35:16.904Z,67.21
2023-04-19T00:45:43.099Z,67.14
2023-04-19T00:56:10.986Z,67.09
2023-04-19T01:06:37.863Z,67.04
2023-04-19T01:17:03.599Z,66.99
2023-04-19T01:27:29.541Z,67.08
2023-04-19T01:37:56.573Z,67.12
2023-04-19T01:48:22.657Z,67.20
2023-04-19T01:58:48.285Z,67.29
2023-04-19T02:09:14.195Z,67.15
2023-04-19T02:19:39.628Z,66.73
2023-04-19T02:30:06.311Z,66.50
2023-04-19T02:40:31.890Z,66.38
2023-04-19T02:50:57.498Z,65.67
2023-04-19T03:01:23.398Z,65.44
2023-04-19T03:11:49.189Z,65.81
2023-04-19T03:22:14.978Z,66.44
2023-04-19T03:32:41.070Z,66.54
2023-04-19T03:43:07.059Z,66.79
2023-04-19T03:53:33.114Z,67.04
2023-04-19T04:04:00.111Z,67.56
2023-04-19T04:14:26.435Z,68.12
2023-04-19T04:24:53.988Z,68.36
2023-04-19T04:35:20.945Z,68.90
2023-04-19T04:45:55.909Z,69.24
2023-04-19T04:56:21.647Z,69.43
2023-04-19T05:06:47.334Z,69.75
2023-04-19T05:17:13.071Z,70.07
2023-04-19T05:27:39.001Z,69.95
2023-04-19T05:38:04.652Z,69.57
2023-04-19T05:48:30.563Z,68.96
2023-04-19T05:58:56.781Z,69.03
2023-04-19T06:09:22.638Z,69.26
2023-04-19T06:19:48.628Z,69.44
2023-04-19T06:30:15.607Z,69.57
2023-04-19T06:40:41.357Z,69.09
2023-04-19T06:51:07.512Z,68.70
2023-04-19T07:01:33.776Z,67.52
2023-04-19T07:11:59.784Z,67.19
2023-04-19T07:22:25.603Z,67.61
2023-04-19T07:32:53.941Z,67.40
2023-04-19T07:43:20.091Z,67.05
2023-04-19T07:53:48.093Z,67.08
2023-04-19T08:04:14.002Z,67.60
2023-04-19T08:14:56.147Z,68.16
2023-04-19T08:25:28.629Z,68.98
2023-04-19T08:35:54.329Z,69.60
2023-04-19T08:46:20.946Z,69.40
2023-04-19T08:56:46.459Z,69.75
2023-04-19T09:07:23.716Z,69.28
2023-04-19T09:18:07.229Z,67.86
2023-04-19T09:28:33.464Z,67.29
2023-04-19T09:38:59.556Z,66.57
2023-04-19T09:49:41.816Z,65.78
2023-04-19T10:00:15.801Z,65.25
2023-04-19T10:10:45.524Z,65.98
2023-04-19T10:21:13.102Z,66.85
2023-04-19T10:31:42.116Z,66.83
2023-04-19T10:42:08.357Z,66.79
2023-04-19T10:52:34.856Z,66.70
2023-04-19T11:03:00.837Z,66.83
2023-04-19T11:13:27.222Z,66.94
2023-04-19T11:24:09.248Z,67.38
2023-04-19T11:34:38.720Z,67.16
2023-04-19T11:55:36.676Z,66.99
2023-04-19T12:06:05.100Z,67.34
2023-04-19T12:16:31.664Z,67.65
2023-04-19T12:26:59.153Z,67.68
2023-04-19T12:37:25.956Z,67.73
2023-04-19T12:47:52.110Z,68.07
2023-04-19T12:58:21.087Z,68.08
2023-04-19T13:08:47.710Z,68.39
2023-04-19T13:19:13.956Z,68.75
2023-04-19T13:29:40.181Z,68.53
2023-04-19T13:40:17.877Z,68.84
2023-04-19T13:50:44.917Z,68.83
2023-04-19T14:01:10.820Z,68.79
2023-04-19T14:11:38.420Z,68.91
2023-04-19T14:22:04.617Z,68.97
2023-04-19T14:32:30.947Z,68.95
2023-04-19T14:42:57.223Z,68.79
2023-04-19T14:53:23.092Z,69.36
2023-04-19T15:03:49.037Z,69.32
2023-04-19T15:14:15.038Z,69.28
2023-04-19T15:24:40.917Z,69.36
2023-04-19T15:35:08.239Z,69.59
2023-04-19T15:45:33.730Z,69.59
2023-04-19T15:55:59.376Z,69.43
2023-04-19T16:06:25.257Z,69.39
2023-04-19T16:16:51.383Z,69.87
2023-04-19T16:27:18.197Z,69.92
2023-04-19T16:37:44.086Z,69.94
2023-04-19T16:48:10.733Z,70.18
2023-04-19T16:58:36.282Z,70.17
2023-04-19T17:09:05.277Z,70.10
2023-04-19T17:19:29.475Z,69.91
2023-04-19T17:29:55.412Z,69.89
2023-04-19T17:40:21.559Z,70.12
2023-04-19T17:50:48.184Z,70.33
2023-04-19T18:01:15.386Z,70.08
2023-04-19T18:11:41.852Z,70.23
2023-04-19T18:22:07.869Z,70.16
2023-04-19T18:32:34.209Z,70.35
2023-04-19T18:43:00.143Z,70.83
2023-04-19T18:53:28.697Z,70.92
2023-04-19T19:04:21.333Z,70.91
2023-04-19T19:14:40.883Z,71.11
2023-04-19T19:25:06.873Z,71.09
2023-04-19T19:35:32.517Z,70.83
2023-04-19T19:45:58.337Z,70.96
2023-04-19T19:56:24.475Z,71.04
2023-04-19T20:17:20.264Z,71.33
2023-04-19T20:27:46.047Z,71.37
2023-04-19T20:38:12.913Z,71.23
2023-04-19T20:48:38.661Z,70.61
2023-04-19T20:59:04.352Z,69.87
2023-04-19T21:09:29.691Z,69.77
2023-04-19T21:19:55.507Z,69.89
2023-04-19T21:30:23.215Z,69.73
2023-04-19T21:40:49.835Z,69.60
2023-04-19T21:51:17.308Z,69.69
2023-04-19T22:01:43.492Z,70.04
2023-04-19T22:12:11.630Z,70.55
2023-04-19T22:22:37.376Z,70.44
2023-04-19T22:33:03.616Z,69.82
2023-04-19T22:43:30.036Z,69.59
2023-04-19T22:53:56.039Z,69.81
2023-04-19T23:04:21.887Z,70.01
2023-04-19T23:14:48.494Z,69.70
2023-04-19T23:25:14.524Z,69.18
2023-04-19T23:35:40.160Z,68.86
2023-04-19T23:46:05.665Z,69.00
2023-04-19T23:56:31.328Z,68.89
